Date,TemperatureHighF,TemperatureAvgF,TemperatureLowF,DewpointHighF,DewpointAvgF,DewpointLowF,HumidityHigh,HumidityAvg,HumidityLow,PressureMaxIn,PressureMinIn,WindSpeedMaxMPH,WindSpeedAvgMPH,GustSpeedMaxMPH,PrecipitationSumIn
2013-2-1,49.6,42.5,33.0,33.7,21.5,8.6,69,46,20,29.89,29.69,25,4,25,0.01
2013-2-2,57.9,43.3,25.8,41.6,23.6,15.4,80,50,23,29.88,29.64,22,2,22,0.60
2013-2-3,62.9,50.2,37.0,42.3,34.0,28.2,91,58,28,29.67,29.51,28,4,28,0.04
2013-2-4,54.5,45.9,38.4,34.4,31.0,28.2,76,57,39,29.66,29.54,10,2,10,0.01
2013-2-5,68.9,52.9,37.1,51.2,43.3,33.2,90,72,47,29.58,29.49,15,2,15,0.01
2013-2-6,71.4,57.3,46.8,52.4,42.2,32.1,97,63,24,29.70,29.57,10,1,10,0.00
2013-2-7,52.3,48.8,46.2,49.5,45.3,37.1,96,88,58,29.64,29.37,24,4,24,0.01
2013-2-8,63.2,51.9,45.0,53.3,47.7,38.3,96,86,69,29.66,29.45,15,3,15,0.01
2013-2-9,62.5,48.2,34.3,38.6,35.4,31.7,93,65,32,29.83,29.65,11,2,12,0.01
2013-2-10,68.0,56.5,42.9,57.7,45.8,31.8,97,68,54,29.85,29.57,24,6,24,0.01
2013-2-11,65.2,59.7,54.9,63.8,58.6,54.3,98,96,90,29.66,29.57,14,3,14,0.00
2013-2-12,58.5,52.6,47.6,54.3,49.8,42.9,98,91,58,29.66,29.31,20,2,20,0.01
2013-2-13,58.8,51.1,43.8,54.5,46.9,39.1,99,86,74,29.49,29.30,24,4,24,1.82
2013-2-14,45.9,39.9,36.0,39.3,36.7,34.3,94,89,76,29.64,29.49,9,2,9,0.00
2013-2-15,65.0,56.1,33.8,43.7,38.4,32.5,95,54,30,29.64,29.50,18,2,18,0.01
2013-2-16,49.9,42.8,31.8,39.8,26.7,13.6,88,56,25,29.69,29.47,29,4,29,0.00
2013-2-17,50.4,37.6,25.9,23.6,17.2,6.9,80,48,19,29.83,29.69,20,3,20,0.28
2013-2-18,58.1,44.6,28.8,31.7,26.7,20.8,84,53,29,29.90,29.68,19,4,19,1.40
2013-2-19,63.3,50.8,44.2,53.1,38.5,23.4,95,66,35,29.68,29.53,22,5,22,0.22
2013-2-20,59.1,47.2,32.0,25.4,19.5,13.6,71,36,18,29.74,29.59,19,3,19,0.00
2013-2-21,67.5,53.2,36.4,35.0,27.3,18.7,63,38,25,29.70,29.50,14,3,14,0.00
2013-2-22,59.2,47.4,42.9,46.7,44.0,34.2,97,90,39,29.66,29.52,20,5,20,0.24
2013-2-23,48.1,45.5,42.6,47.5,44.8,41.8,98,97,97,29.52,29.35,12,2,16,0.18
2013-2-24,70.2,55.3,45.1,48.2,43.0,35.4,99,69,29,29.56,29.45,12,2,12,0.46
2013-2-25,53.0,48.0,43.5,46.2,42.1,34.5,96,81,50,29.56,29.35,22,5,22,0.10
2013-2-26,68.8,52.3,43.1,58.4,45.1,37.4,99,80,42,29.36,29.09,25,6,25,0.07
2013-2-27,63.3,50.7,39.0,40.5,37.5,35.1,87,63,37,29.46,29.34,22,5,22,0.05
2013-2-28,57.1,47.4,40.1,38.7,33.5,29.3,79,60,43,29.51,29.39,23,4,23,0.03